sensor_id;sensor_type;location;lat;lon;timestamp;pressure;altitude;pressure_sealevel;temperature;humidity
21545;BME280;10933;50.754;11.508;2023-09-19T00:01:40;99461.25;;;16.02;100.00
21545;BME280;10933;50.754;11.508;2023-09-19T00:04:08;99461.94;;;15.88;100.00
21545;BME280;10933;50.754;11.508;2023-09-19T00:06:36;99465.34;;;15.75;100.00
21545;BME280;10933;50.754;11.508;2023-09-19T00:09:03;99472.44;;;15.71;100.00
21545;BME280;10933;50.754;11.508;2023-09-19T00:11:29;99472.84;;;15.54;100.00
21545;BME280;10933;50.754;11.508;2023-09-19T00:13:55;99488.91;;;15.51;100.00
21545;BME280;10933;50.754;11.508;2023-09-19T00:16:25;99493.31;;;15.42;100.00
21545;BME280;10933;50.754;11.508;2023-09-19T00:18:51;99492.16;;;15.53;100.00
21545;BME280;10933;50.754;11.508;2023-09-19T00:21:18;99493.78;;;15.54;100.00
21545;BME280;10933;50.754;11.508;2023-09-19T00:23:45;99498.72;;;15.47;100.00
21545;BME280;10933;50.754;11.508;2023-09-19T00:26:11;99502.59;;;15.36;100.00
21545;BME280;10933;50.754;11.508;2023-09-19T00:28:38;99507.56;;;15.28;100.00
21545;BME280;10933;50.754;11.508;2023-09-19T00:31:07;99509.25;;;15.19;100.00
21545;BME280;10933;50.754;11.508;2023-09-19T00:33:34;99509.00;;;15.16;100.00
21545;BME280;10933;50.754;11.508;2023-09-19T00:36:00;99505.19;;;15.17;100.00
21545;BME280;10933;50.754;11.508;2023-09-19T00:38:30;99513.88;;;15.19;100.00
21545;BME280;10933;50.754;11.508;2023-09-19T00:40:57;99510.38;;;15.13;100.00
21545;BME280;10933;50.754;11.508;2023-09-19T00:43:25;99505.00;;;15.03;100.00
21545;BME280;10933;50.754;11.508;2023-09-19T00:45:54;99505.81;;;15.04;100.00
21545;BME280;10933;50.754;11.508;2023-09-19T00:48:24;99517.75;;;15.08;100.00
21545;BME280;10933;50.754;11.508;2023-09-19T00:50:53;99526.75;;;15.03;100.00
21545;BME280;10933;50.754;11.508;2023-09-19T00:53:21;99523.47;;;15.06;100.00
21545;BME280;10933;50.754;11.508;2023-09-19T00:55:50;99527.28;;;15.05;100.00
21545;BME280;10933;50.754;11.508;2023-09-19T00:58:19;99525.66;;;14.99;100.00
21545;BME280;10933;50.754;11.508;2023-09-19T01:00:48;99524.59;;;14.95;100.00
21545;BME280;10933;50.754;11.508;2023-09-19T01:03:14;99515.97;;;14.83;100.00
21545;BME280;10933;50.754;11.508;2023-09-19T01:05:40;99515.50;;;14.76;100.00
21545;BME280;10933;50.754;11.508;2023-09-19T01:08:06;99520.41;;;14.68;100.00
21545;BME280;10933;50.754;11.508;2023-09-19T01:10:33;99519.34;;;14.64;100.00
21545;BME280;10933;50.754;11.508;2023-09-19T01:13:27;99517.47;;;14.55;100.00
21545;BME280;10933;50.754;11.508;2023-09-19T01:16:11;99521.03;;;14.45;100.00
21545;BME280;10933;50.754;11.508;2023-09-19T01:22:15;99530.25;;;14.34;100.00
21545;BME280;10933;50.754;11.508;2023-09-19T01:30:35;99547.06;;;14.41;100.00
21545;BME280;10933;50.754;11.508;2023-09-19T01:33:06;99550.84;;;14.55;100.00
21545;BME280;10933;50.754;11.508;2023-09-19T01:35:32;99560.63;;;14.61;100.00
21545;BME280;10933;50.754;11.508;2023-09-19T01:38:00;99559.69;;;14.86;100.00
21545;BME280;10933;50.754;11.508;2023-09-19T01:40:26;99555.09;;;14.87;100.00
21545;BME280;10933;50.754;11.508;2023-09-19T01:48:43;99559.69;;;14.86;100.00
21545;BME280;10933;50.754;11.508;2023-09-19T01:51:19;99568.91;;;14.85;100.00
21545;BME280;10933;50.754;11.508;2023-09-19T01:54:05;99567.88;;;14.81;100.00
21545;BME280;10933;50.754;11.508;2023-09-19T02:02:25;99574.66;;;14.73;100.00
21545;BME280;10933;50.754;11.508;2023-09-19T02:04:55;99564.97;;;14.62;100.00
21545;BME280;10933;50.754;11.508;2023-09-19T02:07:21;99559.56;;;14.52;100.00
21545;BME280;10933;50.754;11.508;2023-09-19T02:09:48;99566.34;;;14.39;100.00
21545;BME280;10933;50.754;11.508;2023-09-19T02:12:14;99565.25;;;14.35;100.00
21545;BME280;10933;50.754;11.508;2023-09-19T02:14:41;99572.88;;;14.38;100.00
21545;BME280;10933;50.754;11.508;2023-09-19T02:17:07;99571.25;;;14.37;100.00
21545;BME280;10933;50.754;11.508;2023-09-19T02:19:35;99573.13;;;14.42;100.00
21545;BME280;10933;50.754;11.508;2023-09-19T02:22:04;99568.25;;;14.54;100.00
21545;BME280;10933;50.754;11.508;2023-09-19T02:24:36;99578.84;;;14.51;100.00
21545;BME280;10933;50.754;11.508;2023-09-19T02:27:03;99573.66;;;14.54;100.00
21545;BME280;10933;50.754;11.508;2023-09-19T02:29:30;99574.75;;;14.48;100.00
21545;BME280;10933;50.754;11.508;2023-09-19T02:31:56;99579.66;;;14.51;100.00
21545;BME280;10933;50.754;11.508;2023-09-19T02:34:23;99574.22;;;14.46;100.00
21545;BME280;10933;50.754;11.508;2023-09-19T02:36:49;99572.06;;;14.38;100.00
21545;BME280;10933;50.754;11.508;2023-09-19T02:39:15;99578.59;;;14.37;100.00
21545;BME280;10933;50.754;11.508;2023-09-19T02:41:41;99579.66;;;14.41;100.00
21545;BME280;10933;50.754;11.508;2023-09-19T02:44:08;99583.47;;;14.30;100.00
21545;BME280;10933;50.754;11.508;2023-09-19T02:46:35;99583.72;;;14.33;100.00
21545;BME280;10933;50.754;11.508;2023-09-19T02:49:04;99587.28;;;14.29;100.00
21545;BME280;10933;50.754;11.508;2023-09-19T02:51:33;99587.25;;;14.34;100.00
21545;BME280;10933;50.754;11.508;2023-09-19T02:54:00;99583.44;;;14.35;100.00
21545;BME280;10933;50.754;11.508;2023-09-19T02:56:26;99574.78;;;14.33;100.00
21545;BME280;10933;50.754;11.508;2023-09-19T02:58:52;99577.47;;;14.43;100.00
21545;BME280;10933;50.754;11.508;2023-09-19T03:01:24;99573.41;;;14.46;100.00
21545;BME280;10933;50.754;11.508;2023-09-19T03:03:51;99566.09;;;14.46;100.00
21545;BME280;10933;50.754;11.508;2023-09-19T03:06:17;99572.31;;;14.52;100.00
21545;BME280;10933;50.754;11.508;2023-09-19T03:08:46;99572.53;;;14.60;100.00
21545;BME280;10933;50.754;11.508;2023-09-19T03:11:13;99573.03;;;14.78;100.00
21545;BME280;10933;50.754;11.508;2023-09-19T03:13:41;99577.38;;;14.79;100.00
21545;BME280;10933;50.754;11.508;2023-09-19T03:16:08;99571.38;;;14.87;100.00
21545;BME280;10933;50.754;11.508;2023-09-19T03:18:35;99572.44;;;14.91;100.00
21545;BME280;10933;50.754;11.508;2023-09-19T03:21:01;99566.69;;;15.02;100.00
21545;BME280;10933;50.754;11.508;2023-09-19T03:23:28;99561.53;;;15.01;100.00
21545;BME280;10933;50.754;11.508;2023-09-19T03:25:55;99565.84;;;15.07;100.00
21545;BME280;10933;50.754;11.508;2023-09-19T03:28:22;99555.53;;;15.04;100.00
21545;BME280;10933;50.754;11.508;2023-09-19T03:30:59;99563.69;;;14.99;100.00
21545;BME280;10933;50.754;11.508;2023-09-19T03:33:26;99559.09;;;14.99;100.00
21545;BME280;10933;50.754;11.508;2023-09-19T03:35:53;99570.22;;;14.98;100.00
21545;BME280;10933;50.754;11.508;2023-09-19T03:38:20;99572.94;;;14.98;100.00
21545;BME280;10933;50.754;11.508;2023-09-19T03:40:47;99572.38;;;15.06;100.00
21545;BME280;10933;50.754;11.508;2023-09-19T03:43:14;99568.31;;;15.04;100.00
21545;BME280;10933;50.754;11.508;2023-09-19T03:45:40;99572.06;;;15.13;100.00
21545;BME280;10933;50.754;11.508;2023-09-19T03:48:10;99560.41;;;15.07;100.00
21545;BME280;10933;50.754;11.508;2023-09-19T03:50:36;99575.38;;;15.05;100.00
21545;BME280;10933;50.754;11.508;2023-09-19T03:53:03;99580.56;;;15.01;100.00
21545;BME280;10933;50.754;11.508;2023-09-19T03:55:29;99588.13;;;15.04;100.00
21545;BME280;10933;50.754;11.508;2023-09-19T03:57:58;99580.47;;;15.16;100.00
21545;BME280;10933;50.754;11.508;2023-09-19T04:00:24;99578.28;;;15.18;100.00
21545;BME280;10933;50.754;11.508;2023-09-19T04:02:53;99566.34;;;15.14;100.00
21545;BME280;10933;50.754;11.508;2023-09-19T04:05:19;99576.59;;;15.27;100.00
21545;BME280;10933;50.754;11.508;2023-09-19T04:07:45;99581.81;;;15.19;100.00
21545;BME280;10933;50.754;11.508;2023-09-19T04:10:11;99589.19;;;15.13;100.00
21545;BME280;10933;50.754;11.508;2023-09-19T04:12:38;99582.97;;;15.02;100.00
21545;BME280;10933;50.754;11.508;2023-09-19T04:15:05;99588.22;;;14.89;100.00
21545;BME280;10933;50.754;11.508;2023-09-19T04:17:32;99595.84;;;14.82;100.00
21545;BME280;10933;50.754;11.508;2023-09-19T04:20:01;99597.47;;;14.72;100.00
21545;BME280;10933;50.754;11.508;2023-09-19T04:22:27;99599.13;;;14.68;100.00
21545;BME280;10933;50.754;11.508;2023-09-19T04:24:53;99600.50;;;14.66;100.00
21545;BME280;10933;50.754;11.508;2023-09-19T04:27:19;99606.25;;;14.49;100.00
21545;BME280;10933;50.754;11.508;2023-09-19T04:29:45;99602.44;;;14.35;100.00
21545;BME280;10933;50.754;11.508;2023-09-19T04:32:11;99616.03;;;14.20;100.00
21545;BME280;10933;50.754;11.508;2023-09-19T04:34:39;99620.94;;;14.12;100.00
21545;BME280;10933;50.754;11.508;2023-09-19T04:37:05;99619.31;;;14.11;100.00
21545;BME280;10933;50.754;11.508;2023-09-19T04:39:31;99625.84;;;14.10;100.00
21545;BME280;10933;50.754;11.508;2023-09-19T04:41:57;99625.00;;;14.10;100.00
21545;BME280;10933;50.754;11.508;2023-09-19T04:44:24;99631.25;;;14.16;100.00
21545;BME280;10933;50.754;11.508;2023-09-19T04:46:50;99643.72;;;14.11;100.00
21545;BME280;10933;50.754;11.508;2023-09-19T04:49:16;99651.56;;;14.08;100.00
21545;BME280;10933;50.754;11.508;2023-09-19T04:51:44;99657.28;;;14.11;100.00
21545;BME280;10933;50.754;11.508;2023-09-19T04:54:13;99647.50;;;14.16;100.00
21545;BME280;10933;50.754;11.508;2023-09-19T04:56:39;99666.50;;;14.21;100.00
21545;BME280;10933;50.754;11.508;2023-09-19T04:59:06;99676.00;;;14.28;100.00
21545;BME280;10933;50.754;11.508;2023-09-19T05:01:32;99673.00;;;14.35;100.00
21545;BME280;10933;50.754;11.508;2023-09-19T05:03:58;99680.06;;;14.36;100.00
21545;BME280;10933;50.754;11.508;2023-09-19T05:06:24;99675.72;;;14.30;100.00
21545;BME280;10933;50.754;11.508;2023-09-19T05:08:52;99677.91;;;14.38;100.00
21545;BME280;10933;50.754;11.508;2023-09-19T05:11:22;99677.06;;;14.32;100.00
21545;BME280;10933;50.754;11.508;2023-09-19T05:13:49;99681.69;;;14.32;100.00
21545;BME280;10933;50.754;11.508;2023-09-19T05:16:21;99687.13;;;14.32;100.00
21545;BME280;10933;50.754;11.508;2023-09-19T05:18:48;99688.19;;;14.31;100.00
21545;BME280;10933;50.754;11.508;2023-09-19T05:21:15;99679.78;;;14.32;100.00
21545;BME280;10933;50.754;11.508;2023-09-19T05:23:41;99688.75;;;14.33;100.00
21545;BME280;10933;50.754;11.508;2023-09-19T05:26:08;99686.56;;;14.35;100.00
21545;BME280;10933;50.754;11.508;2023-09-19T05:28:34;99699.59;;;14.28;100.00
21545;BME280;10933;50.754;11.508;2023-09-19T05:31:01;99701.22;;;14.19;100.00
21545;BME280;10933;50.754;11.508;2023-09-19T05:33:28;99699.34;;;14.14;100.00
21545;BME280;10933;50.754;11.508;2023-09-19T05:35:57;99706.09;;;13.91;100.00
21545;BME280;10933;50.754;11.508;2023-09-19T05:38:23;99707.19;;;13.85;100.00
21545;BME280;10933;50.754;11.508;2023-09-19T05:40:51;99707.69;;;13.77;100.00
21545;BME280;10933;50.754;11.508;2023-09-19T05:43:17;99722.88;;;13.78;100.00
21545;BME280;10933;50.754;11.508;2023-09-19T05:45:44;99729.09;;;13.73;100.00
21545;BME280;10933;50.754;11.508;2023-09-19T05:48:14;99734.25;;;13.75;100.00
21545;BME280;10933;50.754;11.508;2023-09-19T05:50:42;99737.53;;;13.87;100.00
21545;BME280;10933;50.754;11.508;2023-09-19T05:53:08;99737.00;;;13.85;100.00
21545;BME280;10933;50.754;11.508;2023-09-19T05:55:37;99738.66;;;14.01;100.00
21545;BME280;10933;50.754;11.508;2023-09-19T05:58:04;99756.59;;;14.33;100.00
21545;BME280;10933;50.754;11.508;2023-09-19T06:00:30;99749.84;;;14.46;100.00
21545;BME280;10933;50.754;11.508;2023-09-19T06:02:58;99746.03;;;14.67;100.00
21545;BME280;10933;50.754;11.508;2023-09-19T06:05:26;99749.44;;;15.23;100.00
21545;BME280;10933;50.754;11.508;2023-09-19T06:07:53;99735.69;;;15.69;100.00
21545;BME280;10933;50.754;11.508;2023-09-19T06:10:19;99731.59;;;16.16;100.00
21545;BME280;10933;50.754;11.508;2023-09-19T06:12:49;99727.06;;;16.40;100.00
21545;BME280;10933;50.754;11.508;2023-09-19T06:15:16;99718.97;;;16.64;100.00
21545;BME280;10933;50.754;11.508;2023-09-19T06:17:49;99710.59;;;16.85;100.00
21545;BME280;10933;50.754;11.508;2023-09-19T06:20:16;99707.19;;;16.98;100.00
21545;BME280;10933;50.754;11.508;2023-09-19T06:22:44;99719.50;;;16.95;100.00
21545;BME280;10933;50.754;11.508;2023-09-19T06:25:11;99723.66;;;17.12;100.00
21545;BME280;10933;50.754;11.508;2023-09-19T06:27:40;99723.16;;;17.10;100.00
21545;BME280;10933;50.754;11.508;2023-09-19T06:30:10;99730.41;;;17.43;100.00
21545;BME280;10933;50.754;11.508;2023-09-19T06:32:37;99731.19;;;17.68;100.00
21545;BME280;10933;50.754;11.508;2023-09-19T06:35:04;99747.38;;;17.83;100.00
21545;BME280;10933;50.754;11.508;2023-09-19T06:37:33;99749.72;;;18.08;100.00
21545;BME280;10933;50.754;11.508;2023-09-19T06:40:01;99737.69;;;18.09;100.00
21545;BME280;10933;50.754;11.508;2023-09-19T06:42:27;99744.03;;;18.23;100.00
21545;BME280;10933;50.754;11.508;2023-09-19T06:44:54;99753.94;;;18.19;100.00
21545;BME280;10933;50.754;11.508;2023-09-19T06:47:20;99755.66;;;18.48;100.00
21545;BME280;10933;50.754;11.508;2023-09-19T06:49:46;99766.47;;;18.20;100.00
21545;BME280;10933;50.754;11.508;2023-09-19T06:52:13;99768.16;;;17.98;100.00
21545;BME280;10933;50.754;11.508;2023-09-19T06:54:40;99767.97;;;17.94;100.00
21545;BME280;10933;50.754;11.508;2023-09-19T06:57:07;99767.97;;;17.94;100.00
21545;BME280;10933;50.754;11.508;2023-09-19T06:59:36;99774.69;;;17.78;100.00
21545;BME280;10933;50.754;11.508;2023-09-19T07:02:03;99769.41;;;17.86;100.00
21545;BME280;10933;50.754;11.508;2023-09-19T07:04:32;99775.38;;;17.64;100.00
21545;BME280;10933;50.754;11.508;2023-09-19T07:06:58;99774.25;;;17.71;100.00
21545;BME280;10933;50.754;11.508;2023-09-19T07:09:24;99789.91;;;17.84;100.00
21545;BME280;10933;50.754;11.508;2023-09-19T07:11:53;99796.47;;;17.83;100.00
21545;BME280;10933;50.754;11.508;2023-09-19T07:14:19;99800.56;;;18.04;100.00
21545;BME280;10933;50.754;11.508;2023-09-19T07:16:45;99803.50;;;18.27;100.00
21545;BME280;10933;50.754;11.508;2023-09-19T07:19:13;99805.44;;;18.07;100.00
21545;BME280;10933;50.754;11.508;2023-09-19T07:21:41;99819.94;;;18.03;100.00
21545;BME280;10933;50.754;11.508;2023-09-19T07:24:08;99821.09;;;18.20;100.00
21545;BME280;10933;50.754;11.508;2023-09-19T07:26:34;99817.69;;;18.29;100.00
21545;BME280;10933;50.754;11.508;2023-09-19T07:29:00;99826.56;;;18.20;100.00
21545;BME280;10933;50.754;11.508;2023-09-19T07:31:30;99819.16;;;18.21;100.00
21545;BME280;10933;50.754;11.508;2023-09-19T07:33:56;99842.63;;;18.41;100.00
21545;BME280;10933;50.754;11.508;2023-09-19T07:36:23;99832.81;;;18.59;100.00
21545;BME280;10933;50.754;11.508;2023-09-19T07:38:50;99850.91;;;18.36;100.00
21545;BME280;10933;50.754;11.508;2023-09-19T07:41:16;99848.84;;;18.46;100.00
21545;BME280;10933;50.754;11.508;2023-09-19T07:43:42;99869.44;;;18.58;100.00
21545;BME280;10933;50.754;11.508;2023-09-19T07:46:10;99871.38;;;18.76;100.00
21545;BME280;10933;50.754;11.508;2023-09-19T07:48:37;99884.06;;;18.86;100.00
21545;BME280;10933;50.754;11.508;2023-09-19T07:51:08;99901.44;;;18.95;100.00
21545;BME280;10933;50.754;11.508;2023-09-19T07:53:35;99908.41;;;18.68;100.00
21545;BME280;10933;50.754;11.508;2023-09-19T07:56:05;99902.59;;;18.89;100.00
21545;BME280;10933;50.754;11.508;2023-09-19T07:58:32;99899.19;;;18.97;100.00
21545;BME280;10933;50.754;11.508;2023-09-19T08:01:09;99909.94;;;18.93;100.00
21545;BME280;10933;50.754;11.508;2023-09-19T08:03:36;99940.38;;;18.68;100.00
21545;BME280;10933;50.754;11.508;2023-09-19T08:06:07;99922.69;;;18.60;100.00
21545;BME280;10933;50.754;11.508;2023-09-19T08:08:34;99923.59;;;19.26;100.00
21545;BME280;10933;50.754;11.508;2023-09-19T08:11:03;99934.28;;;19.74;100.00
21545;BME280;10933;50.754;11.508;2023-09-19T08:13:38;99948.09;;;20.23;100.00
21545;BME280;10933;50.754;11.508;2023-09-19T08:16:12;99966.16;;;20.11;100.00
21545;BME280;10933;50.754;11.508;2023-09-19T08:18:38;99995.16;;;20.39;100.00
21545;BME280;10933;50.754;11.508;2023-09-19T08:21:08;100009.09;;;21.06;100.00
21545;BME280;10933;50.754;11.508;2023-09-19T08:23:40;100052.44;;;21.32;100.00
21545;BME280;10933;50.754;11.508;2023-09-19T08:26:06;100075.16;;;22.13;100.00
21545;BME280;10933;50.754;11.508;2023-09-19T08:28:37;100112.84;;;21.54;100.00
21545;BME280;10933;50.754;11.508;2023-09-19T08:31:07;100130.38;;;21.31;100.00
21545;BME280;10933;50.754;11.508;2023-09-19T08:33:37;100186.06;;;21.45;100.00
21545;BME280;10933;50.754;11.508;2023-09-19T08:36:04;100181.66;;;21.94;100.00
21545;BME280;10933;50.754;11.508;2023-09-19T08:38:34;100005.75;;;21.99;100.00
21545;BME280;10933;50.754;11.508;2023-09-19T08:41:04;99845.88;;;21.80;100.00
21545;BME280;10933;50.754;11.508;2023-09-19T08:43:31;99709.88;;;22.51;100.00
21545;BME280;10933;50.754;11.508;2023-09-19T08:48:39;99522.13;;;22.04;100.00
21545;BME280;10933;50.754;11.508;2023-09-19T08:51:12;99405.75;;;22.17;100.00
21545;BME280;10933;50.754;11.508;2023-09-19T08:56:39;99316.88;;;22.34;100.00
21545;BME280;10933;50.754;11.508;2023-09-19T08:59:07;99291.47;;;23.00;100.00
21545;BME280;10933;50.754;11.508;2023-09-19T09:01:35;99278.69;;;22.20;100.00
21545;BME280;10933;50.754;11.508;2023-09-19T09:04:02;99219.56;;;21.72;100.00
21545;BME280;10933;50.754;11.508;2023-09-19T09:06:29;99248.53;;;21.61;100.00
21545;BME280;10933;50.754;11.508;2023-09-19T09:08:55;99229.66;;;21.13;100.00
21545;BME280;10933;50.754;11.508;2023-09-19T09:11:22;99217.97;;;21.33;100.00
21545;BME280;10933;50.754;11.508;2023-09-19T09:13:51;99214.63;;;21.87;100.00
21545;BME280;10933;50.754;11.508;2023-09-19T09:16:18;99224.44;;;21.37;100.00
21545;BME280;10933;50.754;11.508;2023-09-19T09:18:45;99238.63;;;22.19;100.00
21545;BME280;10933;50.754;11.508;2023-09-19T09:21:11;99246.06;;;22.40;100.00
21545;BME280;10933;50.754;11.508;2023-09-19T09:23:41;99244.31;;;21.85;100.00
21545;BME280;10933;50.754;11.508;2023-09-19T09:26:07;99220.59;;;20.74;100.00
21545;BME280;10933;50.754;11.508;2023-09-19T09:28:35;99198.00;;;20.69;100.00
21545;BME280;10933;50.754;11.508;2023-09-19T09:31:05;99186.25;;;20.68;100.00
21545;BME280;10933;50.754;11.508;2023-09-19T09:33:35;99179.53;;;20.95;100.00
21545;BME280;10933;50.754;11.508;2023-09-19T09:36:03;99164.56;;;21.31;100.00
21545;BME280;10933;50.754;11.508;2023-09-19T09:38:43;99157.31;;;21.97;100.00
21545;BME280;10933;50.754;11.508;2023-09-19T09:41:10;99162.09;;;22.09;100.00
21545;BME280;10933;50.754;11.508;2023-09-19T09:43:41;99162.91;;;21.89;100.00
21545;BME280;10933;50.754;11.508;2023-09-19T09:46:17;99186.34;;;22.28;100.00
21545;BME280;10933;50.754;11.508;2023-09-19T09:51:48;99206.06;;;22.09;100.00
21545;BME280;10933;50.754;11.508;2023-09-19T09:54:24;99189.97;;;22.20;100.00
21545;BME280;10933;50.754;11.508;2023-09-19T09:56:59;99206.16;;;21.92;100.00
21545;BME280;10933;50.754;11.508;2023-09-19T10:00:04;99232.22;;;21.86;100.00
21545;BME280;10933;50.754;11.508;2023-09-19T10:02:39;99208.72;;;21.76;100.00
21545;BME280;10933;50.754;11.508;2023-09-19T10:05:17;99241.28;;;22.07;100.00
21545;BME280;10933;50.754;11.508;2023-09-19T10:07:47;99224.88;;;21.48;100.00
21545;BME280;10933;50.754;11.508;2023-09-19T10:10:31;99224.09;;;21.39;100.00
21545;BME280;10933;50.754;11.508;2023-09-19T10:13:13;99213.34;;;21.55;100.00
21545;BME280;10933;50.754;11.508;2023-09-19T10:15:47;99185.66;;;21.48;100.00
21545;BME280;10933;50.754;11.508;2023-09-19T10:18:22;99184.88;;;21.89;100.00
21545;BME280;10933;50.754;11.508;2023-09-19T10:20:49;99200.31;;;22.89;100.00
21545;BME280;10933;50.754;11.508;2023-09-19T10:23:19;99244.38;;;22.26;100.00
21545;BME280;10933;50.754;11.508;2023-09-19T10:25:49;99238.09;;;22.26;100.00
21545;BME280;10933;50.754;11.508;2023-09-19T10:28:18;99266.25;;;23.10;100.00
21545;BME280;10933;50.754;11.508;2023-09-19T10:30:49;99333.72;;;23.28;100.00
21545;BME280;10933;50.754;11.508;2023-09-19T10:33:20;99320.25;;;23.72;100.00
21545;BME280;10933;50.754;11.508;2023-09-19T10:35:49;99333.81;;;23.32;100.00
21545;BME280;10933;50.754;11.508;2023-09-19T10:38:22;99324.94;;;23.02;100.00
21545;BME280;10933;50.754;11.508;2023-09-19T10:40:50;99301.50;;;22.42;100.00
21545;BME280;10933;50.754;11.508;2023-09-19T10:43:19;99269.28;;;22.63;100.00
21545;BME280;10933;50.754;11.508;2023-09-19T10:45:47;99260.13;;;22.38;100.00
21545;BME280;10933;50.754;11.508;2023-09-19T10:48:16;99233.06;;;22.61;100.00
21545;BME280;10933;50.754;11.508;2023-09-19T10:50:53;99269.00;;;23.10;100.00
21545;BME280;10933;50.754;11.508;2023-09-19T10:53:27;99264.16;;;22.95;100.00
21545;BME280;10933;50.754;11.508;2023-09-19T10:55:57;99286.03;;;22.70;100.00
21545;BME280;10933;50.754;11.508;2023-09-19T10:58:30;99315.00;;;23.22;100.00
21545;BME280;10933;50.754;11.508;2023-09-19T11:01:08;99376.25;;;23.88;100.00
21545;BME280;10933;50.754;11.508;2023-09-19T11:03:44;99377.91;;;23.11;100.00
21545;BME280;10933;50.754;11.508;2023-09-19T11:06:14;99367.19;;;22.97;100.00
21545;BME280;10933;50.754;11.508;2023-09-19T11:08:59;99410.78;;;23.28;100.00
21545;BME280;10933;50.754;11.508;2023-09-19T11:30:47;99437.59;;;24.22;100.00
21545;BME280;10933;50.754;11.508;2023-09-19T11:33:24;99451.00;;;23.54;100.00
21545;BME280;10933;50.754;11.508;2023-09-19T11:43:51;99521.22;;;24.99;100.00
21545;BME280;10933;50.754;11.508;2023-09-19T11:46:18;99512.56;;;25.53;100.00
21545;BME280;10933;50.754;11.508;2023-09-19T11:48:50;99513.34;;;25.94;100.00
21545;BME280;10933;50.754;11.508;2023-09-19T11:51:21;99521.63;;;25.94;100.00
21545;BME280;10933;50.754;11.508;2023-09-19T11:53:55;99532.97;;;26.04;100.00
21545;BME280;10933;50.754;11.508;2023-09-19T11:56:25;99525.28;;;25.98;100.00
21545;BME280;10933;50.754;11.508;2023-09-19T11:58:54;99509.59;;;27.16;100.00
21545;BME280;10933;50.754;11.508;2023-09-19T12:01:26;99505.56;;;25.56;100.00
21545;BME280;10933;50.754;11.508;2023-09-19T12:03:57;99523.34;;;25.70;100.00
21545;BME280;10933;50.754;11.508;2023-09-19T12:06:25;99518.47;;;24.62;100.00
21545;BME280;10933;50.754;11.508;2023-09-19T12:08:52;99510.66;;;24.64;100.00
21545;BME280;10933;50.754;11.508;2023-09-19T12:11:21;99517.47;;;23.97;100.00
21545;BME280;10933;50.754;11.508;2023-09-19T12:13:47;99506.78;;;24.41;100.00
21545;BME280;10933;50.754;11.508;2023-09-19T12:16:21;99510.69;;;24.40;100.00
21545;BME280;10933;50.754;11.508;2023-09-19T12:18:49;99504.94;;;24.70;100.00
21545;BME280;10933;50.754;11.508;2023-09-19T12:21:53;99526.31;;;24.60;100.00
21545;BME280;10933;50.754;11.508;2023-09-19T12:24:19;99523.78;;;24.55;100.00
21545;BME280;10933;50.754;11.508;2023-09-19T12:26:46;99524.94;;;24.54;100.00
21545;BME280;10933;50.754;11.508;2023-09-19T12:29:21;99540.78;;;24.45;100.00
21545;BME280;10933;50.754;11.508;2023-09-19T12:31:57;99527.91;;;24.37;100.00
21545;BME280;10933;50.754;11.508;2023-09-19T12:34:28;99528.34;;;24.39;100.00
21545;BME280;10933;50.754;11.508;2023-09-19T12:37:05;99515.72;;;23.81;100.00
21545;BME280;10933;50.754;11.508;2023-09-19T12:39:44;99531.69;;;24.32;100.00
21545;BME280;10933;50.754;11.508;2023-09-19T12:42:16;99531.69;;;24.32;100.00
21545;BME280;10933;50.754;11.508;2023-09-19T12:44:48;99520.53;;;24.29;100.00
21545;BME280;10933;50.754;11.508;2023-09-19T12:47:16;99521.72;;;24.40;100.00
21545;BME280;10933;50.754;11.508;2023-09-19T12:52:36;99530.22;;;23.48;100.00
21545;BME280;10933;50.754;11.508;2023-09-19T12:55:02;99527.09;;;23.91;100.00
21545;BME280;10933;50.754;11.508;2023-09-19T12:57:29;99536.94;;;23.80;100.00
21545;BME280;10933;50.754;11.508;2023-09-19T12:59:58;99546.84;;;23.39;100.00
21545;BME280;10933;50.754;11.508;2023-09-19T13:02:24;99541.88;;;23.87;100.00
21545;BME280;10933;50.754;11.508;2023-09-19T13:04:55;99540.19;;;23.40;100.00
21545;BME280;10933;50.754;11.508;2023-09-19T13:10:10;99533.53;;;23.95;100.00
21545;BME280;10933;50.754;11.508;2023-09-19T13:12:38;99543.34;;;24.05;100.00
21545;BME280;10933;50.754;11.508;2023-09-19T13:15:11;99543.69;;;24.16;100.00
21545;BME280;10933;50.754;11.508;2023-09-19T13:17:48;99539.28;;;24.84;100.00
21545;BME280;10933;50.754;11.508;2023-09-19T13:20:25;99539.03;;;24.89;100.00
21545;BME280;10933;50.754;11.508;2023-09-19T13:22:55;99542.63;;;24.53;100.00
21545;BME280;10933;50.754;11.508;2023-09-19T13:25:26;99536.97;;;25.11;100.00
21545;BME280;10933;50.754;11.508;2023-09-19T13:27:56;99530.75;;;24.77;100.00
21545;BME280;10933;50.754;11.508;2023-09-19T13:30:24;99540.25;;;24.19;100.00
21545;BME280;10933;50.754;11.508;2023-09-19T13:32:51;99529.44;;;24.14;100.00
21545;BME280;10933;50.754;11.508;2023-09-19T13:35:19;99547.91;;;23.68;100.00
21545;BME280;10933;50.754;11.508;2023-09-19T13:37:46;99542.72;;;23.45;100.00
21545;BME280;10933;50.754;11.508;2023-09-19T13:40:15;99530.81;;;24.07;100.00
21545;BME280;10933;50.754;11.508;2023-09-19T13:42:42;99524.28;;;23.67;100.00
21545;BME280;10933;50.754;11.508;2023-09-19T13:45:09;99531.72;;;24.12;100.00
21545;BME280;10933;50.754;11.508;2023-09-19T13:47:41;99518.63;;;23.96;100.00
21545;BME280;10933;50.754;11.508;2023-09-19T13:50:08;99510.16;;;23.47;100.00
21545;BME280;10933;50.754;11.508;2023-09-19T13:52:34;99516.94;;;23.71;100.00